sensor_id;sensor_type;location;lat;lon;timestamp;P1;durP1;ratioP1;P2;durP2;ratioP2
34549;SDS011;66080;52.078;5.626;2023-07-22T00:00:29;13.65;;;9.50;;
34549;SDS011;66080;52.078;5.626;2023-07-22T00:02:54;15.07;;;8.77;;
34549;SDS011;66080;52.078;5.626;2023-07-22T00:05:20;14.07;;;9.05;;
34549;SDS011;66080;52.078;5.626;2023-07-22T00:07:48;15.38;;;8.05;;
34549;SDS011;66080;52.078;5.626;2023-07-22T00:10:14;11.27;;;7.57;;
34549;SDS011;66080;52.078;5.626;2023-07-22T00:12:40;16.73;;;8.88;;
34549;SDS011;66080;52.078;5.626;2023-07-22T00:15:06;12.57;;;9.18;;
34549;SDS011;66080;52.078;5.626;2023-07-22T00:17:32;14.38;;;8.98;;
34549;SDS011;66080;52.078;5.626;2023-07-22T00:19:58;12.65;;;8.00;;
34549;SDS011;66080;52.078;5.626;2023-07-22T00:22:25;14.98;;;8.52;;
34549;SDS011;66080;52.078;5.626;2023-07-22T00:24:51;12.90;;;9.55;;
34549;SDS011;66080;52.078;5.626;2023-07-22T00:27:17;11.15;;;7.63;;
34549;SDS011;66080;52.078;5.626;2023-07-22T00:29:43;13.13;;;8.88;;
34549;SDS011;66080;52.078;5.626;2023-07-22T00:32:08;12.95;;;8.80;;
34549;SDS011;66080;52.078;5.626;2023-07-22T00:34:34;16.27;;;9.95;;
34549;SDS011;66080;52.078;5.626;2023-07-22T00:37:00;14.93;;;9.05;;
34549;SDS011;66080;52.078;5.626;2023-07-22T00:39:26;16.00;;;9.45;;
34549;SDS011;66080;52.078;5.626;2023-07-22T00:41:51;16.50;;;8.52;;
34549;SDS011;66080;52.078;5.626;2023-07-22T00:44:17;15.02;;;9.20;;
34549;SDS011;66080;52.078;5.626;2023-07-22T00:46:42;14.05;;;8.65;;
34549;SDS011;66080;52.078;5.626;2023-07-22T00:49:08;13.65;;;9.07;;
34549;SDS011;66080;52.078;5.626;2023-07-22T00:51:34;15.02;;;9.43;;
34549;SDS011;66080;52.078;5.626;2023-07-22T00:54:00;16.77;;;9.05;;
34549;SDS011;66080;52.078;5.626;2023-07-22T00:56:25;14.32;;;8.68;;
34549;SDS011;66080;52.078;5.626;2023-07-22T00:58:51;15.07;;;10.02;;
34549;SDS011;66080;52.078;5.626;2023-07-22T01:01:17;13.38;;;8.18;;
34549;SDS011;66080;52.078;5.626;2023-07-22T01:03:43;16.67;;;9.32;;
34549;SDS011;66080;52.078;5.626;2023-07-22T01:06:11;12.68;;;9.02;;
34549;SDS011;66080;52.078;5.626;2023-07-22T01:08:38;20.48;;;9.65;;
34549;SDS011;66080;52.078;5.626;2023-07-22T01:11:04;20.55;;;10.02;;
34549;SDS011;66080;52.078;5.626;2023-07-22T01:13:31;14.25;;;8.82;;
34549;SDS011;66080;52.078;5.626;2023-07-22T01:15:56;16.92;;;9.63;;
34549;SDS011;66080;52.078;5.626;2023-07-22T01:18:22;14.35;;;8.48;;
34549;SDS011;66080;52.078;5.626;2023-07-22T01:20:47;14.65;;;9.25;;
34549;SDS011;66080;52.078;5.626;2023-07-22T01:23:13;14.07;;;9.38;;
34549;SDS011;66080;52.078;5.626;2023-07-22T01:25:39;14.10;;;9.02;;
34549;SDS011;66080;52.078;5.626;2023-07-22T01:28:08;19.50;;;9.43;;
34549;SDS011;66080;52.078;5.626;2023-07-22T01:30:35;13.43;;;9.13;;
34549;SDS011;66080;52.078;5.626;2023-07-22T01:33:01;16.17;;;9.13;;
34549;SDS011;66080;52.078;5.626;2023-07-22T01:35:27;13.48;;;9.10;;
34549;SDS011;66080;52.078;5.626;2023-07-22T01:37:52;12.73;;;8.35;;
34549;SDS011;66080;52.078;5.626;2023-07-22T01:40:18;13.25;;;8.48;;
34549;SDS011;66080;52.078;5.626;2023-07-22T01:42:43;13.85;;;9.30;;
34549;SDS011;66080;52.078;5.626;2023-07-22T01:45:09;15.02;;;9.73;;
34549;SDS011;66080;52.078;5.626;2023-07-22T01:47:35;15.60;;;9.23;;
34549;SDS011;66080;52.078;5.626;2023-07-22T01:50:02;16.80;;;9.75;;
34549;SDS011;66080;52.078;5.626;2023-07-22T01:52:29;12.40;;;8.93;;
34549;SDS011;66080;52.078;5.626;2023-07-22T01:54:54;15.25;;;8.95;;
34549;SDS011;66080;52.078;5.626;2023-07-22T01:57:20;14.77;;;9.70;;
34549;SDS011;66080;52.078;5.626;2023-07-22T01:59:45;16.98;;;10.40;;
34549;SDS011;66080;52.078;5.626;2023-07-22T02:02:11;15.18;;;9.68;;
34549;SDS011;66080;52.078;5.626;2023-07-22T02:04:37;16.25;;;9.35;;
34549;SDS011;66080;52.078;5.626;2023-07-22T02:07:02;18.67;;;9.05;;
34549;SDS011;66080;52.078;5.626;2023-07-22T02:09:28;14.75;;;9.05;;
34549;SDS011;66080;52.078;5.626;2023-07-22T02:11:54;18.65;;;9.25;;
34549;SDS011;66080;52.078;5.626;2023-07-22T02:14:19;16.60;;;9.50;;
34549;SDS011;66080;52.078;5.626;2023-07-22T02:16:45;14.13;;;8.57;;
34549;SDS011;66080;52.078;5.626;2023-07-22T02:19:10;14.95;;;10.20;;
34549;SDS011;66080;52.078;5.626;2023-07-22T02:21:36;14.93;;;9.85;;
34549;SDS011;66080;52.078;5.626;2023-07-22T02:24:01;15.70;;;10.40;;
34549;SDS011;66080;52.078;5.626;2023-07-22T02:26:27;17.42;;;9.25;;
34549;SDS011;66080;52.078;5.626;2023-07-22T02:28:53;15.32;;;10.20;;
34549;SDS011;66080;52.078;5.626;2023-07-22T02:31:19;13.05;;;8.88;;
34549;SDS011;66080;52.078;5.626;2023-07-22T02:33:47;17.00;;;11.63;;
34549;SDS011;66080;52.078;5.626;2023-07-22T02:36:12;20.42;;;11.38;;
34549;SDS011;66080;52.078;5.626;2023-07-22T02:38:38;14.52;;;8.63;;
34549;SDS011;66080;52.078;5.626;2023-07-22T02:41:04;14.48;;;9.27;;
34549;SDS011;66080;52.078;5.626;2023-07-22T02:43:32;16.20;;;9.02;;
34549;SDS011;66080;52.078;5.626;2023-07-22T02:45:59;17.15;;;8.98;;
34549;SDS011;66080;52.078;5.626;2023-07-22T02:48:30;18.48;;;9.95;;
34549;SDS011;66080;52.078;5.626;2023-07-22T02:51:08;15.73;;;9.70;;
34549;SDS011;66080;52.078;5.626;2023-07-22T02:53:35;16.33;;;9.52;;
34549;SDS011;66080;52.078;5.626;2023-07-22T02:56:07;17.70;;;11.00;;
34549;SDS011;66080;52.078;5.626;2023-07-22T02:58:33;16.30;;;9.40;;
34549;SDS011;66080;52.078;5.626;2023-07-22T03:00:59;19.15;;;10.60;;
34549;SDS011;66080;52.078;5.626;2023-07-22T03:03:24;27.08;;;11.70;;
34549;SDS011;66080;52.078;5.626;2023-07-22T03:05:50;18.88;;;10.93;;
34549;SDS011;66080;52.078;5.626;2023-07-22T03:08:17;21.48;;;11.95;;
34549;SDS011;66080;52.078;5.626;2023-07-22T03:10:43;22.35;;;10.65;;
34549;SDS011;66080;52.078;5.626;2023-07-22T03:13:13;22.73;;;12.38;;
34549;SDS011;66080;52.078;5.626;2023-07-22T03:15:39;18.48;;;10.65;;
34549;SDS011;66080;52.078;5.626;2023-07-22T03:18:05;15.05;;;10.05;;
34549;SDS011;66080;52.078;5.626;2023-07-22T03:20:31;23.67;;;12.15;;
34549;SDS011;66080;52.078;5.626;2023-07-22T03:22:57;23.17;;;11.75;;
34549;SDS011;66080;52.078;5.626;2023-07-22T03:25:22;18.27;;;11.35;;
34549;SDS011;66080;52.078;5.626;2023-07-22T03:27:48;21.35;;;10.43;;
34549;SDS011;66080;52.078;5.626;2023-07-22T03:30:14;22.98;;;11.50;;
34549;SDS011;66080;52.078;5.626;2023-07-22T03:32:41;21.67;;;12.48;;
34549;SDS011;66080;52.078;5.626;2023-07-22T03:35:08;26.55;;;12.82;;
34549;SDS011;66080;52.078;5.626;2023-07-22T03:37:35;17.63;;;11.05;;
34549;SDS011;66080;52.078;5.626;2023-07-22T03:40:01;20.00;;;11.73;;
34549;SDS011;66080;52.078;5.626;2023-07-22T03:42:42;21.88;;;11.23;;
34549;SDS011;66080;52.078;5.626;2023-07-22T03:45:08;22.30;;;11.50;;
34549;SDS011;66080;52.078;5.626;2023-07-22T03:47:38;19.80;;;10.93;;
34549;SDS011;66080;52.078;5.626;2023-07-22T03:50:04;25.73;;;12.98;;
34549;SDS011;66080;52.078;5.626;2023-07-22T03:52:30;19.80;;;12.35;;
34549;SDS011;66080;52.078;5.626;2023-07-22T03:54:56;24.35;;;13.18;;
34549;SDS011;66080;52.078;5.626;2023-07-22T03:57:25;19.40;;;11.77;;
34549;SDS011;66080;52.078;5.626;2023-07-22T03:59:54;18.70;;;11.40;;
34549;SDS011;66080;52.078;5.626;2023-07-22T04:02:20;19.60;;;11.43;;
34549;SDS011;66080;52.078;5.626;2023-07-22T04:04:45;18.08;;;11.40;;
34549;SDS011;66080;52.078;5.626;2023-07-22T04:07:11;20.50;;;11.38;;
34549;SDS011;66080;52.078;5.626;2023-07-22T04:09:36;28.92;;;12.18;;
34549;SDS011;66080;52.078;5.626;2023-07-22T04:12:02;20.45;;;11.07;;
34549;SDS011;66080;52.078;5.626;2023-07-22T04:14:28;20.65;;;11.57;;
34549;SDS011;66080;52.078;5.626;2023-07-22T04:16:54;21.08;;;12.40;;
34549;SDS011;66080;52.078;5.626;2023-07-22T04:19:19;24.30;;;12.68;;
34549;SDS011;66080;52.078;5.626;2023-07-22T04:21:45;23.75;;;11.80;;
34549;SDS011;66080;52.078;5.626;2023-07-22T04:24:11;21.85;;;12.60;;
34549;SDS011;66080;52.078;5.626;2023-07-22T04:26:36;24.95;;;12.00;;
34549;SDS011;66080;52.078;5.626;2023-07-22T04:29:02;27.77;;;12.50;;
34549;SDS011;66080;52.078;5.626;2023-07-22T04:31:28;24.90;;;13.77;;
34549;SDS011;66080;52.078;5.626;2023-07-22T04:33:53;18.65;;;10.73;;
34549;SDS011;66080;52.078;5.626;2023-07-22T04:36:19;21.58;;;12.60;;
34549;SDS011;66080;52.078;5.626;2023-07-22T04:38:45;20.85;;;12.68;;
34549;SDS011;66080;52.078;5.626;2023-07-22T04:41:10;22.35;;;12.80;;
34549;SDS011;66080;52.078;5.626;2023-07-22T04:43:36;20.15;;;12.15;;
34549;SDS011;66080;52.078;5.626;2023-07-22T04:46:01;22.63;;;11.45;;
34549;SDS011;66080;52.078;5.626;2023-07-22T04:48:27;26.35;;;14.15;;
34549;SDS011;66080;52.078;5.626;2023-07-22T04:50:53;24.52;;;11.93;;
34549;SDS011;66080;52.078;5.626;2023-07-22T04:53:18;27.88;;;13.85;;
34549;SDS011;66080;52.078;5.626;2023-07-22T04:55:44;25.67;;;13.10;;
34549;SDS011;66080;52.078;5.626;2023-07-22T04:58:10;19.38;;;12.00;;
34549;SDS011;66080;52.078;5.626;2023-07-22T05:00:36;21.13;;;12.35;;
34549;SDS011;66080;52.078;5.626;2023-07-22T05:03:04;27.90;;;14.23;;
34549;SDS011;66080;52.078;5.626;2023-07-22T05:05:30;23.95;;;14.45;;
34549;SDS011;66080;52.078;5.626;2023-07-22T05:07:56;22.92;;;13.07;;
34549;SDS011;66080;52.078;5.626;2023-07-22T05:10:22;27.58;;;14.93;;
34549;SDS011;66080;52.078;5.626;2023-07-22T05:12:47;26.42;;;14.68;;
34549;SDS011;66080;52.078;5.626;2023-07-22T05:15:13;30.55;;;16.95;;
34549;SDS011;66080;52.078;5.626;2023-07-22T05:17:40;25.02;;;15.27;;
34549;SDS011;66080;52.078;5.626;2023-07-22T05:20:06;32.78;;;15.38;;
34549;SDS011;66080;52.078;5.626;2023-07-22T05:22:35;30.75;;;15.35;;
34549;SDS011;66080;52.078;5.626;2023-07-22T05:25:01;31.63;;;15.90;;
34549;SDS011;66080;52.078;5.626;2023-07-22T05:27:26;31.08;;;16.17;;
34549;SDS011;66080;52.078;5.626;2023-07-22T05:29:52;37.63;;;15.93;;
34549;SDS011;66080;52.078;5.626;2023-07-22T05:32:17;30.15;;;17.35;;
34549;SDS011;66080;52.078;5.626;2023-07-22T05:34:43;33.30;;;16.67;;
34549;SDS011;66080;52.078;5.626;2023-07-22T05:37:08;34.45;;;17.48;;
34549;SDS011;66080;52.078;5.626;2023-07-22T05:39:34;30.00;;;15.35;;
34549;SDS011;66080;52.078;5.626;2023-07-22T05:41:59;30.35;;;15.27;;
34549;SDS011;66080;52.078;5.626;2023-07-22T05:44:25;34.55;;;16.52;;
34549;SDS011;66080;52.078;5.626;2023-07-22T05:46:51;29.23;;;17.02;;
34549;SDS011;66080;52.078;5.626;2023-07-22T05:49:16;37.05;;;15.95;;
34549;SDS011;66080;52.078;5.626;2023-07-22T05:51:42;33.67;;;16.90;;
34549;SDS011;66080;52.078;5.626;2023-07-22T05:54:07;28.50;;;15.48;;
34549;SDS011;66080;52.078;5.626;2023-07-22T05:56:33;36.95;;;17.30;;
34549;SDS011;66080;52.078;5.626;2023-07-22T05:58:59;28.52;;;15.70;;
34549;SDS011;66080;52.078;5.626;2023-07-22T06:01:24;30.00;;;16.48;;
34549;SDS011;66080;52.078;5.626;2023-07-22T06:03:50;34.92;;;16.67;;
34549;SDS011;66080;52.078;5.626;2023-07-22T06:06:16;47.83;;;18.23;;
34549;SDS011;66080;52.078;5.626;2023-07-22T06:08:41;35.45;;;17.13;;
34549;SDS011;66080;52.078;5.626;2023-07-22T06:11:07;35.55;;;15.63;;
34549;SDS011;66080;52.078;5.626;2023-07-22T06:13:33;34.83;;;16.92;;
34549;SDS011;66080;52.078;5.626;2023-07-22T06:15:58;33.42;;;16.30;;
34549;SDS011;66080;52.078;5.626;2023-07-22T06:18:24;38.58;;;17.20;;
34549;SDS011;66080;52.078;5.626;2023-07-22T06:20:50;32.90;;;17.92;;
34549;SDS011;66080;52.078;5.626;2023-07-22T06:23:15;31.83;;;16.98;;
34549;SDS011;66080;52.078;5.626;2023-07-22T06:25:41;33.53;;;15.73;;
34549;SDS011;66080;52.078;5.626;2023-07-22T06:28:07;35.13;;;16.77;;
34549;SDS011;66080;52.078;5.626;2023-07-22T06:30:33;35.45;;;16.42;;
34549;SDS011;66080;52.078;5.626;2023-07-22T06:32:58;31.08;;;16.67;;
34549;SDS011;66080;52.078;5.626;2023-07-22T06:35:24;36.03;;;16.20;;
34549;SDS011;66080;52.078;5.626;2023-07-22T06:37:49;31.38;;;17.77;;
34549;SDS011;66080;52.078;5.626;2023-07-22T06:40:15;39.58;;;20.17;;
34549;SDS011;66080;52.078;5.626;2023-07-22T06:42:40;35.70;;;17.42;;
34549;SDS011;66080;52.078;5.626;2023-07-22T06:45:06;30.83;;;17.23;;
34549;SDS011;66080;52.078;5.626;2023-07-22T06:47:32;33.95;;;17.52;;
34549;SDS011;66080;52.078;5.626;2023-07-22T06:49:58;35.78;;;17.85;;
34549;SDS011;66080;52.078;5.626;2023-07-22T06:52:23;35.20;;;17.30;;
34549;SDS011;66080;52.078;5.626;2023-07-22T06:54:49;31.60;;;16.80;;
34549;SDS011;66080;52.078;5.626;2023-07-22T06:57:15;35.20;;;18.08;;
34549;SDS011;66080;52.078;5.626;2023-07-22T06:59:40;31.17;;;17.60;;
34549;SDS011;66080;52.078;5.626;2023-07-22T07:02:06;33.10;;;16.88;;
34549;SDS011;66080;52.078;5.626;2023-07-22T07:04:32;30.27;;;17.23;;
34549;SDS011;66080;52.078;5.626;2023-07-22T07:06:57;36.33;;;17.02;;
34549;SDS011;66080;52.078;5.626;2023-07-22T07:09:24;30.00;;;16.10;;
34549;SDS011;66080;52.078;5.626;2023-07-22T07:11:50;28.23;;;14.48;;
34549;SDS011;66080;52.078;5.626;2023-07-22T07:14:16;30.17;;;15.13;;
34549;SDS011;66080;52.078;5.626;2023-07-22T07:16:42;30.17;;;15.77;;
34549;SDS011;66080;52.078;5.626;2023-07-22T07:19:08;29.38;;;14.40;;
34549;SDS011;66080;52.078;5.626;2023-07-22T07:21:34;27.13;;;14.10;;
34549;SDS011;66080;52.078;5.626;2023-07-22T07:24:00;26.90;;;14.02;;
34549;SDS011;66080;52.078;5.626;2023-07-22T07:26:26;27.70;;;14.25;;
34549;SDS011;66080;52.078;5.626;2023-07-22T07:28:53;25.40;;;13.15;;
34549;SDS011;66080;52.078;5.626;2023-07-22T07:31:19;33.50;;;17.23;;
34549;SDS011;66080;52.078;5.626;2023-07-22T07:33:45;20.98;;;13.52;;
34549;SDS011;66080;52.078;5.626;2023-07-22T07:36:10;25.77;;;13.43;;
34549;SDS011;66080;52.078;5.626;2023-07-22T07:38:36;23.25;;;12.60;;
34549;SDS011;66080;52.078;5.626;2023-07-22T07:41:03;27.67;;;15.60;;
34549;SDS011;66080;52.078;5.626;2023-07-22T07:43:30;25.60;;;13.60;;
34549;SDS011;66080;52.078;5.626;2023-07-22T07:48:52;28.08;;;12.68;;
34549;SDS011;66080;52.078;5.626;2023-07-22T07:51:19;24.40;;;12.63;;
34549;SDS011;66080;52.078;5.626;2023-07-22T07:53:46;21.20;;;12.05;;
34549;SDS011;66080;52.078;5.626;2023-07-22T07:56:12;21.35;;;11.20;;
34549;SDS011;66080;52.078;5.626;2023-07-22T07:58:39;21.85;;;11.02;;
34549;SDS011;66080;52.078;5.626;2023-07-22T08:01:05;15.77;;;9.07;;
34549;SDS011;66080;52.078;5.626;2023-07-22T08:03:32;17.05;;;10.75;;
34549;SDS011;66080;52.078;5.626;2023-07-22T08:05:58;21.52;;;11.45;;
34549;SDS011;66080;52.078;5.626;2023-07-22T08:08:23;27.55;;;13.43;;
34549;SDS011;66080;52.078;5.626;2023-07-22T08:11:02;17.30;;;10.88;;
34549;SDS011;66080;52.078;5.626;2023-07-22T08:13:28;16.83;;;10.82;;
34549;SDS011;66080;52.078;5.626;2023-07-22T08:16:06;18.27;;;10.18;;
34549;SDS011;66080;52.078;5.626;2023-07-22T08:18:33;16.38;;;9.77;;
34549;SDS011;66080;52.078;5.626;2023-07-22T08:20:59;17.77;;;8.30;;
34549;SDS011;66080;52.078;5.626;2023-07-22T08:23:25;11.18;;;7.40;;
34549;SDS011;66080;52.078;5.626;2023-07-22T08:25:51;12.85;;;6.68;;
34549;SDS011;66080;52.078;5.626;2023-07-22T08:28:17;13.13;;;7.90;;
34549;SDS011;66080;52.078;5.626;2023-07-22T08:30:43;11.45;;;7.13;;
34549;SDS011;66080;52.078;5.626;2023-07-22T08:33:09;9.30;;;7.15;;
34549;SDS011;66080;52.078;5.626;2023-07-22T08:35:38;10.75;;;7.20;;
34549;SDS011;66080;52.078;5.626;2023-07-22T08:38:04;10.55;;;7.90;;
34549;SDS011;66080;52.078;5.626;2023-07-22T08:40:38;13.98;;;7.80;;
34549;SDS011;66080;52.078;5.626;2023-07-22T08:43:06;16.65;;;8.18;;
34549;SDS011;66080;52.078;5.626;2023-07-22T08:45:34;11.32;;;7.18;;
34549;SDS011;66080;52.078;5.626;2023-07-22T08:48:04;12.93;;;7.53;;
34549;SDS011;66080;52.078;5.626;2023-07-22T08:50:45;11.18;;;7.68;;
34549;SDS011;66080;52.078;5.626;2023-07-22T08:53:14;15.98;;;7.47;;
34549;SDS011;66080;52.078;5.626;2023-07-22T08:55:41;9.68;;;6.90;;
34549;SDS011;66080;52.078;5.626;2023-07-22T08:58:08;14.70;;;7.07;;
34549;SDS011;66080;52.078;5.626;2023-07-22T09:00:34;19.58;;;8.00;;
34549;SDS011;66080;52.078;5.626;2023-07-22T09:03:00;11.45;;;6.57;;
34549;SDS011;66080;52.078;5.626;2023-07-22T09:05:26;12.43;;;7.72;;
34549;SDS011;66080;52.078;5.626;2023-07-22T09:07:53;13.70;;;6.85;;
34549;SDS011;66080;52.078;5.626;2023-07-22T09:10:20;11.23;;;6.00;;
34549;SDS011;66080;52.078;5.626;2023-07-22T09:12:47;8.48;;;5.57;;
34549;SDS011;66080;52.078;5.626;2023-07-22T09:15:12;10.52;;;5.97;;
34549;SDS011;66080;52.078;5.626;2023-07-22T09:17:39;11.10;;;5.15;;
34549;SDS011;66080;52.078;5.626;2023-07-22T09:20:05;10.48;;;6.15;;
34549;SDS011;66080;52.078;5.626;2023-07-22T09:22:32;9.57;;;5.32;;
34549;SDS011;66080;52.078;5.626;2023-07-22T09:25:40;9.75;;;4.50;;
34549;SDS011;66080;52.078;5.626;2023-07-22T09:27:48;11.17;;;5.60;;
34549;SDS011;66080;52.078;5.626;2023-07-22T09:32:55;8.95;;;5.43;;
34549;SDS011;66080;52.078;5.626;2023-07-22T09:35:23;11.35;;;6.00;;
34549;SDS011;66080;52.078;5.626;2023-07-22T09:37:51;9.98;;;6.03;;
34549;SDS011;66080;52.078;5.626;2023-07-22T09:40:19;13.18;;;6.07;;
34549;SDS011;66080;52.078;5.626;2023-07-22T09:42:45;10.18;;;6.72;;
34549;SDS011;66080;52.078;5.626;2023-07-22T09:45:11;8.45;;;6.07;;
34549;SDS011;66080;52.078;5.626;2023-07-22T09:47:40;9.43;;;5.70;;
34549;SDS011;66080;52.078;5.626;2023-07-22T09:50:28;12.80;;;5.95;;
34549;SDS011;66080;52.078;5.626;2023-07-22T09:52:57;13.68;;;6.90;;
34549;SDS011;66080;52.078;5.626;2023-07-22T09:55:25;9.65;;;7.32;;
34549;SDS011;66080;52.078;5.626;2023-07-22T09:57:54;13.57;;;6.88;;
34549;SDS011;66080;52.078;5.626;2023-07-22T10:00:21;12.15;;;6.18;;
34549;SDS011;66080;52.078;5.626;2023-07-22T10:02:51;14.82;;;5.53;;
34549;SDS011;66080;52.078;5.626;2023-07-22T10:05:18;10.52;;;6.60;;
34549;SDS011;66080;52.078;5.626;2023-07-22T10:08:02;10.10;;;6.50;;
34549;SDS011;66080;52.078;5.626;2023-07-22T10:10:37;10.18;;;6.32;;
34549;SDS011;66080;52.078;5.626;2023-07-22T10:13:05;16.90;;;8.18;;
34549;SDS011;66080;52.078;5.626;2023-07-22T10:15:31;9.70;;;6.13;;
34549;SDS011;66080;52.078;5.626;2023-07-22T10:18:01;17.25;;;6.88;;
34549;SDS011;66080;52.078;5.626;2023-07-22T10:20:28;12.27;;;5.88;;
34549;SDS011;66080;52.078;5.626;2023-07-22T10:22:54;10.85;;;5.75;;
34549;SDS011;66080;52.078;5.626;2023-07-22T10:25:21;11.27;;;5.30;;
34549;SDS011;66080;52.078;5.626;2023-07-22T10:27:51;10.10;;;6.65;;
34549;SDS011;66080;52.078;5.626;2023-07-22T10:30:17;12.52;;;5.50;;
34549;SDS011;66080;52.078;5.626;2023-07-22T10:32:51;17.80;;;6.40;;
34549;SDS011;66080;52.078;5.626;2023-07-22T10:37:55;9.75;;;5.82;;
34549;SDS011;66080;52.078;5.626;2023-07-22T10:40:27;6.32;;;4.78;;
34549;SDS011;66080;52.078;5.626;2023-07-22T10:42:59;12.73;;;4.75;;
34549;SDS011;66080;52.078;5.626;2023-07-22T10:45:29;11.27;;;5.22;;
34549;SDS011;66080;52.078;5.626;2023-07-22T10:48:15;11.10;;;4.93;;
34549;SDS011;66080;52.078;5.626;2023-07-22T10:50:48;8.45;;;5.32;;
34549;SDS011;66080;52.078;5.626;2023-07-22T10:58:55;4.68;;;3.65;;
34549;SDS011;66080;52.078;5.626;2023-07-22T11:06:32;10.65;;;5.47;;
34549;SDS011;66080;52.078;5.626;2023-07-22T11:08:58;6.70;;;4.05;;
34549;SDS011;66080;52.078;5.626;2023-07-22T11:11:40;8.55;;;4.53;;
34549;SDS011;66080;52.078;5.626;2023-07-22T11:14:13;5.75;;;3.60;;
34549;SDS011;66080;52.078;5.626;2023-07-22T11:16:43;7.13;;;4.55;;
34549;SDS011;66080;52.078;5.626;2023-07-22T11:19:12;7.63;;;3.50;;
34549;SDS011;66080;52.078;5.626;2023-07-22T11:21:39;7.38;;;4.45;;
34549;SDS011;66080;52.078;5.626;2023-07-22T11:24:05;10.98;;;3.40;;
34549;SDS011;66080;52.078;5.626;2023-07-22T11:26:32;7.70;;;3.35;;
34549;SDS011;66080;52.078;5.626;2023-07-22T11:28:58;7.45;;;4.68;;
34549;SDS011;66080;52.078;5.626;2023-07-22T11:34:01;10.90;;;4.00;;
34549;SDS011;66080;52.078;5.626;2023-07-22T11:36:30;11.15;;;3.88;;
34549;SDS011;66080;52.078;5.626;2023-07-22T11:39:06;7.60;;;3.83;;
34549;SDS011;66080;52.078;5.626;2023-07-22T11:41:33;8.38;;;3.83;;
34549;SDS011;66080;52.078;5.626;2023-07-22T11:43:59;7.63;;;4.00;;
34549;SDS011;66080;52.078;5.626;2023-07-22T11:46:26;8.52;;;4.70;;
34549;SDS011;66080;52.078;5.626;2023-07-22T11:48:52;7.43;;;4.38;;
34549;SDS011;66080;52.078;5.626;2023-07-22T11:51:22;12.10;;;4.50;;
34549;SDS011;66080;52.078;5.626;2023-07-22T11:53:49;12.68;;;4.43;;
34549;SDS011;66080;52.078;5.626;2023-07-22T11:56:22;7.72;;;4.40;;
34549;SDS011;66080;52.078;5.626;2023-07-22T11:58:51;6.80;;;4.28;;
34549;SDS011;66080;52.078;5.626;2023-07-22T12:01:18;8.77;;;4.60;;
34549;SDS011;66080;52.078;5.626;2023-07-22T12:03:44;13.50;;;5.65;;
34549;SDS011;66080;52.078;5.626;2023-07-22T12:06:11;9.23;;;4.60;;
34549;SDS011;66080;52.078;5.626;2023-07-22T12:08:37;11.57;;;4.80;;
34549;SDS011;66080;52.078;5.626;2023-07-22T12:11:08;8.77;;;5.30;;
34549;SDS011;66080;52.078;5.626;2023-07-22T12:13:42;5.70;;;4.47;;
34549;SDS011;66080;52.078;5.626;2023-07-22T12:16:11;12.45;;;6.25;;
34549;SDS011;66080;52.078;5.626;2023-07-22T12:18:44;9.85;;;5.55;;
34549;SDS011;66080;52.078;5.626;2023-07-22T12:21:10;11.10;;;5.85;;
34549;SDS011;66080;52.078;5.626;2023-07-22T12:23:36;12.65;;;7.40;;
34549;SDS011;66080;52.078;5.626;2023-07-22T12:26:03;11.35;;;8.00;;
34549;SDS011;66080;52.078;5.626;2023-07-22T12:28:29;16.52;;;8.57;;
34549;SDS011;66080;52.078;5.626;2023-07-22T12:30:55;10.68;;;8.60;;
34549;SDS011;66080;52.078;5.626;2023-07-22T12:33:22;16.48;;;8.85;;
34549;SDS011;66080;52.078;5.626;2023-07-22T12:35:54;19.13;;;10.23;;
34549;SDS011;66080;52.078;5.626;2023-07-22T12:38:20;13.18;;;8.55;;
34549;SDS011;66080;52.078;5.626;2023-07-22T12:40:46;15.43;;;8.57;;
34549;SDS011;66080;52.078;5.626;2023-07-22T12:43:11;11.35;;;8.90;;
34549;SDS011;66080;52.078;5.626;2023-07-22T12:45:37;16.27;;;8.30;;
34549;SDS011;66080;52.078;5.626;2023-07-22T12:48:03;13.90;;;8.85;;
34549;SDS011;66080;52.078;5.626;2023-07-22T12:50:30;12.27;;;7.90;;
34549;SDS011;66080;52.078;5.626;2023-07-22T12:52:57;11.43;;;9.57;;
34549;SDS011;66080;52.078;5.626;2023-07-22T12:55:23;16.73;;;8.20;;
34549;SDS011;66080;52.078;5.626;2023-07-22T12:57:48;11.98;;;8.30;;
34549;SDS011;66080;52.078;5.626;2023-07-22T13:00:14;9.18;;;7.07;;
34549;SDS011;66080;52.078;5.626;2023-07-22T13:02:39;8.65;;;7.03;;
34549;SDS011;66080;52.078;5.626;2023-07-22T13:05:05;7.60;;;6.55;;
34549;SDS011;66080;52.078;5.626;2023-07-22T13:07:31;10.80;;;6.65;;
34549;SDS011;66080;52.078;5.626;2023-07-22T13:09:57;9.77;;;5.85;;
34549;SDS011;66080;52.078;5.626;2023-07-22T13:12:25;6.45;;;5.85;;
34549;SDS011;66080;52.078;5.626;2023-07-22T13:14:51;9.60;;;5.65;;
34549;SDS011;66080;52.078;5.626;2023-07-22T13:17:16;8.77;;;5.82;;
34549;SDS011;66080;52.078;5.626;2023-07-22T13:19:42;11.35;;;6.35;;
34549;SDS011;66080;52.078;5.626;2023-07-22T13:22:07;7.25;;;6.53;;
34549;SDS011;66080;52.078;5.626;2023-07-22T13:24:33;8.10;;;5.40;;
34549;SDS011;66080;52.078;5.626;2023-07-22T13:26:58;9.57;;;7.22;;
34549;SDS011;66080;52.078;5.626;2023-07-22T13:29:24;10.60;;;6.38;;
34549;SDS011;66080;52.078;5.626;2023-07-22T13:31:50;8.88;;;5.75;;
34549;SDS011;66080;52.078;5.626;2023-07-22T13:34:15;8.30;;;5.78;;
34549;SDS011;66080;52.078;5.626;2023-07-22T13:36:41;9.32;;;5.90;;
34549;SDS011;66080;52.078;5.626;2023-07-22T13:39:06;12.20;;;6.25;;
34549;SDS011;66080;52.078;5.626;2023-07-22T13:41:32;9.23;;;5.40;;
34549;SDS011;66080;52.078;5.626;2023-07-22T13:43:57;6.80;;;4.93;;
34549;SDS011;66080;52.078;5.626;2023-07-22T13:46:23;6.65;;;4.38;;
34549;SDS011;66080;52.078;5.626;2023-07-22T13:48:48;6.07;;;4.60;;
34549;SDS011;66080;52.078;5.626;2023-07-22T13:51:14;7.40;;;3.88;;
34549;SDS011;66080;52.078;5.626;2023-07-22T13:53:39;9.07;;;3.95;;
34549;SDS011;66080;52.078;5.626;2023-07-22T13:56:05;8.07;;;4.85;;
34549;SDS011;66080;52.078;5.626;2023-07-22T13:58:30;9.60;;;5.38;;
34549;SDS011;66080;52.078;5.626;2023-07-22T14:00:56;9.63;;;4.50;;
34549;SDS011;66080;52.078;5.626;2023-07-22T14:03:22;7.75;;;3.97;;
34549;SDS011;66080;52.078;5.626;2023-07-22T14:05:47;10.07;;;5.15;;
34549;SDS011;66080;52.078;5.626;2023-07-22T14:08:13;8.15;;;4.55;;
34549;SDS011;66080;52.078;5.626;2023-07-22T14:10:38;8.05;;;3.03;;
34549;SDS011;66080;52.078;5.626;2023-07-22T14:13:04;5.13;;;3.38;;
34549;SDS011;66080;52.078;5.626;2023-07-22T14:15:29;7.90;;;3.38;;
34549;SDS011;66080;52.078;5.626;2023-07-22T14:17:55;9.88;;;3.60;;
34549;SDS011;66080;52.078;5.626;2023-07-22T14:20:21;17.20;;;4.32;;
34549;SDS011;66080;52.078;5.626;2023-07-22T14:22:47;5.93;;;3.25;;
34549;SDS011;66080;52.078;5.626;2023-07-22T14:25:14;7.47;;;3.40;;
34549;SDS011;66080;52.078;5.626;2023-07-22T14:27:40;4.70;;;2.92;;
34549;SDS011;66080;52.078;5.626;2023-07-22T14:30:06;4.30;;;2.42;;
34549;SDS011;66080;52.078;5.626;2023-07-22T14:32:33;4.55;;;3.90;;
34549;SDS011;66080;52.078;5.626;2023-07-22T14:34:59;8.48;;;3.65;;
34549;SDS011;66080;52.078;5.626;2023-07-22T14:37:24;7.20;;;3.58;;
34549;SDS011;66080;52.078;5.626;2023-07-22T14:39:50;8.75;;;3.40;;
34549;SDS011;66080;52.078;5.626;2023-07-22T14:42:15;6.55;;;2.67;;
34549;SDS011;66080;52.078;5.626;2023-07-22T14:44:41;7.40;;;3.42;;
34549;SDS011;66080;52.078;5.626;2023-07-22T14:47:06;8.48;;;3.00;;
34549;SDS011;66080;52.078;5.626;2023-07-22T14:49:32;8.27;;;4.13;;
34549;SDS011;66080;52.078;5.626;2023-07-22T14:51:57;6.10;;;3.28;;